sensor_id;sensor_type;location;lat;lon;timestamp;pressure;altitude;pressure_sealevel;temperature;humidity
69574;BME280;62840;52.366;5.980;2023-05-21T00:00:25;101875.03;;;15.46;54.67
69574;BME280;62840;52.366;5.980;2023-05-21T00:02:51;101875.28;;;15.43;54.34
69574;BME280;62840;52.366;5.980;2023-05-21T00:05:19;101865.50;;;15.42;54.49
69574;BME280;62840;52.366;5.980;2023-05-21T00:07:45;101868.19;;;15.42;54.43
69574;BME280;62840;52.366;5.980;2023-05-21T00:10:10;101862.81;;;15.42;54.92
69574;BME280;62840;52.366;5.980;2023-05-21T00:12:36;101865.63;;;15.40;54.75
69574;BME280;62840;52.366;5.980;2023-05-21T00:15:03;101863.06;;;15.39;54.65
69574;BME280;62840;52.366;5.980;2023-05-21T00:17:29;101854.28;;;15.37;54.82
69574;BME280;62840;52.366;5.980;2023-05-21T00:19:55;101855.41;;;15.34;55.00
69574;BME280;62840;52.366;5.980;2023-05-21T00:22:23;101850.19;;;15.33;55.17
69574;BME280;62840;52.366;5.980;2023-05-21T00:24:49;101853.13;;;15.30;55.21
69574;BME280;62840;52.366;5.980;2023-05-21T00:27:15;101853.13;;;15.30;55.12
69574;BME280;62840;52.366;5.980;2023-05-21T00:29:41;101844.09;;;15.31;55.02
69574;BME280;62840;52.366;5.980;2023-05-21T00:32:07;101847.63;;;15.31;54.93
69574;BME280;62840;52.366;5.980;2023-05-21T00:34:32;101840.41;;;15.32;55.40
69574;BME280;62840;52.366;5.980;2023-05-21T00:36:58;101845.78;;;15.32;55.20
69574;BME280;62840;52.366;5.980;2023-05-21T00:39:26;101838.72;;;15.31;55.03
69574;BME280;62840;52.366;5.980;2023-05-21T00:41:52;101838.72;;;15.31;55.26
69574;BME280;62840;52.366;5.980;2023-05-21T00:44:18;101833.34;;;15.31;55.52
69574;BME280;62840;52.366;5.980;2023-05-21T00:46:44;101832.50;;;15.30;55.09
69574;BME280;62840;52.366;5.980;2023-05-21T00:49:10;101836.03;;;15.31;55.37
69574;BME280;62840;52.366;5.980;2023-05-21T00:51:36;101829.66;;;15.32;55.17
69574;BME280;62840;52.366;5.980;2023-05-21T00:54:02;101830.50;;;15.32;55.30
69574;BME280;62840;52.366;5.980;2023-05-21T00:56:31;101835.03;;;15.32;55.33
69574;BME280;62840;52.366;5.980;2023-05-21T00:58:57;101833.34;;;15.31;55.37
69574;BME280;62840;52.366;5.980;2023-05-21T01:01:24;101828.81;;;15.31;55.43
69574;BME280;62840;52.366;5.980;2023-05-21T01:03:50;101829.66;;;15.32;55.70
69574;BME280;62840;52.366;5.980;2023-05-21T01:06:16;101838.72;;;15.31;55.67
69574;BME280;62840;52.366;5.980;2023-05-21T01:08:42;101828.94;;;15.30;55.64
69574;BME280;62840;52.366;5.980;2023-05-21T01:11:08;101831.50;;;15.31;55.78
69574;BME280;62840;52.366;5.980;2023-05-21T01:13:38;101832.50;;;15.30;55.69
69574;BME280;62840;52.366;5.980;2023-05-21T01:16:06;101823.72;;;15.28;55.89
69574;BME280;62840;52.366;5.980;2023-05-21T01:18:33;101828.22;;;15.28;56.05
69574;BME280;62840;52.366;5.980;2023-05-21T01:21:00;101820.88;;;15.30;55.94
69574;BME280;62840;52.366;5.980;2023-05-21T01:23:28;101826.25;;;15.30;56.13
69574;BME280;62840;52.366;5.980;2023-05-21T01:25:54;101816.50;;;15.29;55.73
69574;BME280;62840;52.366;5.980;2023-05-21T01:28:20;101817.47;;;15.28;56.02
69574;BME280;62840;52.366;5.980;2023-05-21T01:30:46;101805.16;;;15.25;56.27
69574;BME280;62840;52.366;5.980;2023-05-21T01:33:17;101808.69;;;15.26;56.13
69574;BME280;62840;52.366;5.980;2023-05-21T01:35:50;101804.31;;;15.24;56.29
69574;BME280;62840;52.366;5.980;2023-05-21T01:38:32;101796.78;;;15.18;56.37
69574;BME280;62840;52.366;5.980;2023-05-21T01:41:09;101798.50;;;15.19;56.44
69574;BME280;62840;52.366;5.980;2023-05-21T01:43:38;101800.47;;;15.17;56.69
69574;BME280;62840;52.366;5.980;2023-05-21T01:46:09;101803.53;;;15.13;56.58
69574;BME280;62840;52.366;5.980;2023-05-21T01:48:41;101804.66;;;15.10;56.71
69574;BME280;62840;52.366;5.980;2023-05-21T01:51:08;101809.03;;;15.11;56.77
69574;BME280;62840;52.366;5.980;2023-05-21T01:53:37;101805.63;;;15.09;57.03
69574;BME280;62840;52.366;5.980;2023-05-21T01:56:04;101804.66;;;15.10;56.77
69574;BME280;62840;52.366;5.980;2023-05-21T01:58:30;101804.66;;;15.10;57.23
69574;BME280;62840;52.366;5.980;2023-05-21T02:00:56;101804.66;;;15.10;57.01
69574;BME280;62840;52.366;5.980;2023-05-21T02:03:24;101797.56;;;15.09;57.32
69574;BME280;62840;52.366;5.980;2023-05-21T02:05:51;101791.47;;;15.07;57.07
69574;BME280;62840;52.366;5.980;2023-05-21T02:08:16;101788.78;;;15.07;57.32
69574;BME280;62840;52.366;5.980;2023-05-21T02:10:45;101791.63;;;15.06;57.52
69574;BME280;62840;52.366;5.980;2023-05-21T02:13:10;101793.31;;;15.07;57.17
69574;BME280;62840;52.366;5.980;2023-05-21T02:15:36;101789.78;;;15.06;57.21
69574;BME280;62840;52.366;5.980;2023-05-21T02:18:02;101781.97;;;15.03;57.25
69574;BME280;62840;52.366;5.980;2023-05-21T02:20:29;101785.38;;;15.05;57.32
69574;BME280;62840;52.366;5.980;2023-05-21T02:22:55;101791.03;;;15.02;57.71
69574;BME280;62840;52.366;5.980;2023-05-21T02:25:20;101791.03;;;15.02;57.85
69574;BME280;62840;52.366;5.980;2023-05-21T02:27:49;101785.66;;;15.02;57.56
69574;BME280;62840;52.366;5.980;2023-05-21T02:30:15;101792.72;;;15.03;57.53
69574;BME280;62840;52.366;5.980;2023-05-21T02:32:41;101785.66;;;15.02;57.96
69574;BME280;62840;52.366;5.980;2023-05-21T02:35:08;101782.97;;;15.02;57.82
69574;BME280;62840;52.366;5.980;2023-05-21T02:37:35;101791.03;;;15.02;57.86
69574;BME280;62840;52.366;5.980;2023-05-21T02:40:03;101788.34;;;15.02;57.73
69574;BME280;62840;52.366;5.980;2023-05-21T02:42:30;101790.19;;;15.01;58.15
69574;BME280;62840;52.366;5.980;2023-05-21T02:44:59;101785.66;;;15.02;58.19
69574;BME280;62840;52.366;5.980;2023-05-21T02:47:24;101783.97;;;15.01;57.94
69574;BME280;62840;52.366;5.980;2023-05-21T02:49:51;101782.97;;;15.02;58.22
69574;BME280;62840;52.366;5.980;2023-05-21T02:52:19;101781.97;;;15.03;58.33
69574;BME280;62840;52.366;5.980;2023-05-21T02:54:45;101776.59;;;15.03;58.17
69574;BME280;62840;52.366;5.980;2023-05-21T02:57:12;101783.69;;;15.04;58.06
69574;BME280;62840;52.366;5.980;2023-05-21T02:59:38;101778.31;;;15.04;58.42
69574;BME280;62840;52.366;5.980;2023-05-21T03:02:06;101781.97;;;15.03;58.23
69574;BME280;62840;52.366;5.980;2023-05-21T03:04:32;101781.00;;;15.04;58.41
69574;BME280;62840;52.366;5.980;2023-05-21T03:06:58;101781.00;;;15.04;58.34
69574;BME280;62840;52.366;5.980;2023-05-21T03:09:23;101783.69;;;15.04;58.58
69574;BME280;62840;52.366;5.980;2023-05-21T03:11:49;101781.00;;;15.04;58.60
69574;BME280;62840;52.366;5.980;2023-05-21T03:14:15;101781.97;;;15.03;58.62
69574;BME280;62840;52.366;5.980;2023-05-21T03:16:41;101775.50;;;15.06;58.29
69574;BME280;62840;52.366;5.980;2023-05-21T03:19:10;101775.50;;;15.06;58.44
69574;BME280;62840;52.366;5.980;2023-05-21T03:21:37;101780.88;;;15.06;58.33
69574;BME280;62840;52.366;5.980;2023-05-21T03:24:04;101773.66;;;15.06;58.58
69574;BME280;62840;52.366;5.980;2023-05-21T03:26:30;101770.97;;;15.06;58.85
69574;BME280;62840;52.366;5.980;2023-05-21T03:28:56;101778.31;;;15.04;58.81
69574;BME280;62840;52.366;5.980;2023-05-21T03:31:23;101776.59;;;15.03;58.67
69574;BME280;62840;52.366;5.980;2023-05-21T03:33:49;101773.22;;;15.01;58.77
69574;BME280;62840;52.366;5.980;2023-05-21T03:36:17;101774.19;;;15.00;58.99
69574;BME280;62840;52.366;5.980;2023-05-21T03:38:43;101771.50;;;15.00;58.93
69574;BME280;62840;52.366;5.980;2023-05-21T03:41:09;101773.34;;;14.99;59.07
69574;BME280;62840;52.366;5.980;2023-05-21T03:43:36;101762.72;;;14.98;59.10
69574;BME280;62840;52.366;5.980;2023-05-21T03:46:01;101766.13;;;15.00;59.03
69574;BME280;62840;52.366;5.980;2023-05-21T03:48:27;101775.19;;;14.99;59.01
69574;BME280;62840;52.366;5.980;2023-05-21T03:50:53;101771.50;;;15.00;59.13
69574;BME280;62840;52.366;5.980;2023-05-21T03:53:21;101776.88;;;15.00;59.18
69574;BME280;62840;52.366;5.980;2023-05-21T03:55:47;101761.59;;;15.00;59.47
69574;BME280;62840;52.366;5.980;2023-05-21T03:58:13;101767.84;;;15.01;59.50
69574;BME280;62840;52.366;5.980;2023-05-21T04:00:39;101765.28;;;14.99;59.37
69574;BME280;62840;52.366;5.980;2023-05-21T04:03:04;101771.50;;;15.00;59.26
69574;BME280;62840;52.366;5.980;2023-05-21T04:05:30;101764.44;;;14.99;59.46
69574;BME280;62840;52.366;5.980;2023-05-21T04:07:56;101768.09;;;14.98;59.52
69574;BME280;62840;52.366;5.980;2023-05-21T04:10:25;101769.94;;;14.97;59.44
69574;BME280;62840;52.366;5.980;2023-05-21T04:12:50;101772.63;;;14.97;59.58
69574;BME280;62840;52.366;5.980;2023-05-21T04:15:16;101775.44;;;14.96;59.94
69574;BME280;62840;52.366;5.980;2023-05-21T04:17:42;101782.53;;;14.97;59.97
69574;BME280;62840;52.366;5.980;2023-05-21T04:20:08;101771.78;;;14.97;59.55
69574;BME280;62840;52.366;5.980;2023-05-21T04:22:34;101777.28;;;14.95;59.74
69574;BME280;62840;52.366;5.980;2023-05-21T04:25:00;101773.75;;;14.95;59.76
69574;BME280;62840;52.366;5.980;2023-05-21T04:27:28;101777.41;;;14.94;60.02
69574;BME280;62840;52.366;5.980;2023-05-21T04:29:54;101777.41;;;14.94;60.17
69574;BME280;62840;52.366;5.980;2023-05-21T04:32:20;101778.41;;;14.93;60.13
69574;BME280;62840;52.366;5.980;2023-05-21T04:34:45;101778.69;;;14.90;60.01
69574;BME280;62840;52.366;5.980;2023-05-21T04:37:11;101782.31;;;14.89;60.35
69574;BME280;62840;52.366;5.980;2023-05-21T04:39:37;101774.28;;;14.89;60.50
69574;BME280;62840;52.366;5.980;2023-05-21T04:42:03;101779.66;;;14.89;60.15
69574;BME280;62840;52.366;5.980;2023-05-21T04:44:31;101779.66;;;14.89;60.38
69574;BME280;62840;52.366;5.980;2023-05-21T04:46:57;101785.00;;;14.89;60.41
69574;BME280;62840;52.366;5.980;2023-05-21T04:49:22;101777.94;;;14.88;60.35
69574;BME280;62840;52.366;5.980;2023-05-21T04:51:48;101781.59;;;14.87;60.39
69574;BME280;62840;52.366;5.980;2023-05-21T04:54:14;101779.66;;;14.89;60.70
69574;BME280;62840;52.366;5.980;2023-05-21T04:56:40;101777.69;;;14.91;60.65
69574;BME280;62840;52.366;5.980;2023-05-21T04:59:06;101783.06;;;14.91;60.45
69574;BME280;62840;52.366;5.980;2023-05-21T05:01:34;101782.06;;;14.92;60.27
69574;BME280;62840;52.366;5.980;2023-05-21T05:04:00;101783.66;;;14.94;60.50
69574;BME280;62840;52.366;5.980;2023-05-21T05:06:25;101781.69;;;14.96;60.67
69574;BME280;62840;52.366;5.980;2023-05-21T05:08:51;101777.16;;;14.97;60.62
69574;BME280;62840;52.366;5.980;2023-05-21T05:11:17;101777.16;;;14.97;60.56
69574;BME280;62840;52.366;5.980;2023-05-21T05:13:43;101779.69;;;14.98;60.70
69574;BME280;62840;52.366;5.980;2023-05-21T05:16:09;101782.25;;;15.00;60.66
69574;BME280;62840;52.366;5.980;2023-05-21T05:18:37;101775.03;;;15.00;60.87
69574;BME280;62840;52.366;5.980;2023-05-21T05:21:03;101780.28;;;15.02;60.92
69574;BME280;62840;52.366;5.980;2023-05-21T05:23:29;101778.59;;;15.01;60.88
69574;BME280;62840;52.366;5.980;2023-05-21T05:25:54;101776.59;;;15.03;60.85
69574;BME280;62840;52.366;5.980;2023-05-21T05:28:20;101780.00;;;15.05;60.65
69574;BME280;62840;52.366;5.980;2023-05-21T05:30:46;101783.41;;;15.07;60.93
69574;BME280;62840;52.366;5.980;2023-05-21T05:33:12;101775.22;;;15.09;60.41
69574;BME280;62840;52.366;5.980;2023-05-21T05:35:40;101776.06;;;15.09;60.67
69574;BME280;62840;52.366;5.980;2023-05-21T05:38:06;101779.47;;;15.11;60.76
69574;BME280;62840;52.366;5.980;2023-05-21T05:40:31;101777.53;;;15.13;60.61
69574;BME280;62840;52.366;5.980;2023-05-21T05:42:57;101777.53;;;15.13;60.82
69574;BME280;62840;52.366;5.980;2023-05-21T05:45:23;101777.25;;;15.16;60.53
69574;BME280;62840;52.366;5.980;2023-05-21T05:47:48;101773.59;;;15.17;60.50
69574;BME280;62840;52.366;5.980;2023-05-21T05:50:14;101773.59;;;15.17;60.60
69574;BME280;62840;52.366;5.980;2023-05-21T05:52:42;101773.31;;;15.20;60.74
69574;BME280;62840;52.366;5.980;2023-05-21T05:55:08;101771.63;;;15.19;60.42
69574;BME280;62840;52.366;5.980;2023-05-21T05:57:34;101770.63;;;15.20;60.83
69574;BME280;62840;52.366;5.980;2023-05-21T06:00:00;101773.06;;;15.23;60.82
69574;BME280;62840;52.366;5.980;2023-05-21T06:02:26;101774.75;;;15.24;60.63
69574;BME280;62840;52.366;5.980;2023-05-21T06:04:52;101775.59;;;15.25;60.75
69574;BME280;62840;52.366;5.980;2023-05-21T06:07:17;101772.78;;;15.27;60.94
69574;BME280;62840;52.366;5.980;2023-05-21T06:09:46;101772.78;;;15.27;60.82
69574;BME280;62840;52.366;5.980;2023-05-21T06:12:11;101770.81;;;15.29;60.43
69574;BME280;62840;52.366;5.980;2023-05-21T06:14:37;101766.00;;;15.32;60.67
69574;BME280;62840;52.366;5.980;2023-05-21T06:17:03;101766.88;;;15.33;60.73
69574;BME280;62840;52.366;5.980;2023-05-21T06:19:29;101771.97;;;15.36;61.03
69574;BME280;62840;52.366;5.980;2023-05-21T06:21:55;101773.66;;;15.37;60.90
69574;BME280;62840;52.366;5.980;2023-05-21T06:24:20;101780.75;;;15.38;60.95
69574;BME280;62840;52.366;5.980;2023-05-21T06:26:49;101770.72;;;15.40;60.61
69574;BME280;62840;52.366;5.980;2023-05-21T06:29:14;101770.72;;;15.40;60.58
69574;BME280;62840;52.366;5.980;2023-05-21T06:31:40;101768.88;;;15.40;60.62
69574;BME280;62840;52.366;5.980;2023-05-21T06:34:06;101766.91;;;15.42;60.69
69574;BME280;62840;52.366;5.980;2023-05-21T06:36:31;101765.91;;;15.43;60.63
69574;BME280;62840;52.366;5.980;2023-05-21T06:38:57;101760.41;;;15.45;60.48
69574;BME280;62840;52.366;5.980;2023-05-21T06:41:23;101756.00;;;15.44;60.41
69574;BME280;62840;52.366;5.980;2023-05-21T06:43:51;101758.41;;;15.47;60.53
69574;BME280;62840;52.366;5.980;2023-05-21T06:46:17;101755.59;;;15.49;60.59
69574;BME280;62840;52.366;5.980;2023-05-21T06:48:43;101753.63;;;15.51;60.73
69574;BME280;62840;52.366;5.980;2023-05-21T06:51:09;101756.16;;;15.52;60.55
69574;BME280;62840;52.366;5.980;2023-05-21T06:53:34;101754.06;;;15.56;60.59
69574;BME280;62840;52.366;5.980;2023-05-21T06:56:00;101755.63;;;15.58;60.56
69574;BME280;62840;52.366;5.980;2023-05-21T06:58:26;101750.97;;;15.60;60.71
69574;BME280;62840;52.366;5.980;2023-05-21T07:00:54;101751.69;;;15.62;60.48
69574;BME280;62840;52.366;5.980;2023-05-21T07:03:20;101751.38;;;15.65;60.51
69574;BME280;62840;52.366;5.980;2023-05-21T07:05:46;101750.13;;;15.70;60.47
69574;BME280;62840;52.366;5.980;2023-05-21T07:08:12;101754.53;;;15.71;60.39
69574;BME280;62840;52.366;5.980;2023-05-21T07:10:38;101743.50;;;15.74;60.15
69574;BME280;62840;52.366;5.980;2023-05-21T07:13:03;101745.19;;;15.75;60.08
69574;BME280;62840;52.366;5.980;2023-05-21T07:15:29;101736.84;;;15.78;60.39
69574;BME280;62840;52.366;5.980;2023-05-21T07:17:57;101740.13;;;15.81;60.33
69574;BME280;62840;52.366;5.980;2023-05-21T07:20:23;101745.38;;;15.83;60.25
69574;BME280;62840;52.366;5.980;2023-05-21T07:22:49;101744.38;;;15.84;60.30
69574;BME280;62840;52.366;5.980;2023-05-21T07:25:15;101752.31;;;15.85;60.40
69574;BME280;62840;52.366;5.980;2023-05-21T07:27:41;101751.19;;;15.88;60.41
69574;BME280;62840;52.366;5.980;2023-05-21T07:30:08;101762.41;;;15.93;60.49
69574;BME280;62840;52.366;5.980;2023-05-21T07:32:34;101755.72;;;15.97;60.44
69574;BME280;62840;52.366;5.980;2023-05-21T07:35:03;101754.59;;;16.00;60.29
69574;BME280;62840;52.366;5.980;2023-05-21T07:37:30;101753.50;;;16.02;60.29
69574;BME280;62840;52.366;5.980;2023-05-21T07:39:56;101751.22;;;16.08;60.09
69574;BME280;62840;52.366;5.980;2023-05-21T07:42:22;101750.91;;;16.11;60.31
69574;BME280;62840;52.366;5.980;2023-05-21T07:44:47;101752.63;;;16.12;60.09
69574;BME280;62840;52.366;5.980;2023-05-21T07:47:13;101748.69;;;16.16;59.82
69574;BME280;62840;52.366;5.980;2023-05-21T07:49:39;101744.69;;;16.20;59.80
69574;BME280;62840;52.366;5.980;2023-05-21T07:52:07;101742.44;;;16.25;59.91
69574;BME280;62840;52.366;5.980;2023-05-21T07:54:33;101736.78;;;16.28;59.80
69574;BME280;62840;52.366;5.980;2023-05-21T07:56:59;101743.56;;;16.32;59.58
69574;BME280;62840;52.366;5.980;2023-05-21T07:59:25;101745.00;;;16.36;59.46
69574;BME280;62840;52.366;5.980;2023-05-21T08:01:50;101744.69;;;16.39;59.63
69574;BME280;62840;52.366;5.980;2023-05-21T08:04:16;101732.78;;;16.42;59.91
69574;BME280;62840;52.366;5.980;2023-05-21T08:06:42;101735.03;;;16.46;59.69
69574;BME280;62840;52.366;5.980;2023-05-21T08:09:10;101735.63;;;16.50;59.73
69574;BME280;62840;52.366;5.980;2023-05-21T08:11:36;101727.38;;;16.52;59.80
69574;BME280;62840;52.366;5.980;2023-05-21T08:14:01;101733.19;;;16.57;59.78
69574;BME280;62840;52.366;5.980;2023-05-21T08:16:27;101724.53;;;16.63;59.32
69574;BME280;62840;52.366;5.980;2023-05-21T08:18:53;101717.72;;;16.68;59.59
69574;BME280;62840;52.366;5.980;2023-05-21T08:21:19;101716.28;;;16.74;59.40
69574;BME280;62840;52.366;5.980;2023-05-21T08:23:45;101723.78;;;16.80;59.45
69574;BME280;62840;52.366;5.980;2023-05-21T08:26:13;101730.31;;;16.87;59.59
69574;BME280;62840;52.366;5.980;2023-05-21T08:28:39;101730.75;;;16.93;59.54
69574;BME280;62840;52.366;5.980;2023-05-21T08:31:05;101728.44;;;16.98;59.67
69574;BME280;62840;52.366;5.980;2023-05-21T08:33:30;101727.88;;;17.04;59.50
69574;BME280;62840;52.366;5.980;2023-05-21T08:35:56;101730.97;;;17.09;59.37
69574;BME280;62840;52.366;5.980;2023-05-21T08:38:22;101732.06;;;17.16;59.56
69574;BME280;62840;52.366;5.980;2023-05-21T08:40:50;101727.94;;;17.22;59.46
69574;BME280;62840;52.366;5.980;2023-05-21T08:43:21;101730.88;;;17.28;58.85
69574;BME280;62840;52.366;5.980;2023-05-21T08:45:52;101722.34;;;17.33;59.08
69574;BME280;62840;52.366;5.980;2023-05-21T08:48:21;101733.66;;;17.37;59.19
69574;BME280;62840;52.366;5.980;2023-05-21T08:50:48;101729.66;;;17.41;58.97
69574;BME280;62840;52.366;5.980;2023-05-21T08:53:15;101730.75;;;17.48;59.20
69574;BME280;62840;52.366;5.980;2023-05-21T08:55:42;101726.47;;;17.55;58.84
69574;BME280;62840;52.366;5.980;2023-05-21T08:58:08;101722.47;;;17.59;58.84
69574;BME280;62840;52.366;5.980;2023-05-21T09:00:37;101719.31;;;17.64;58.58
69574;BME280;62840;52.366;5.980;2023-05-21T09:03:04;101731.50;;;17.68;58.80
69574;BME280;62840;52.366;5.980;2023-05-21T09:05:30;101724.94;;;17.70;58.31
69574;BME280;62840;52.366;5.980;2023-05-21T09:07:58;101723.38;;;17.78;58.46
69574;BME280;62840;52.366;5.980;2023-05-21T09:10:34;101723.78;;;17.83;58.53
69574;BME280;62840;52.366;5.980;2023-05-21T09:13:03;101721.31;;;17.89;58.53
69574;BME280;62840;52.366;5.980;2023-05-21T09:15:29;101724.25;;;17.96;58.46
69574;BME280;62840;52.366;5.980;2023-05-21T09:17:58;101717.38;;;18.02;58.34
69574;BME280;62840;52.366;5.980;2023-05-21T09:20:24;101716.75;;;18.08;58.28
69574;BME280;62840;52.366;5.980;2023-05-21T09:22:52;101718.69;;;18.16;57.95
69574;BME280;62840;52.366;5.980;2023-05-21T09:25:21;101719.75;;;18.23;58.06
69574;BME280;62840;52.366;5.980;2023-05-21T09:27:48;101719.13;;;18.29;57.87
69574;BME280;62840;52.366;5.980;2023-05-21T09:30:15;101714.78;;;18.36;58.11
69574;BME280;62840;52.366;5.980;2023-05-21T09:32:43;101716.19;;;18.40;57.85
69574;BME280;62840;52.366;5.980;2023-05-21T09:35:13;101721.94;;;18.45;57.34
69574;BME280;62840;52.366;5.980;2023-05-21T09:37:40;101709.81;;;18.49;57.56
69574;BME280;62840;52.366;5.980;2023-05-21T09:40:11;101712.06;;;18.54;57.53
69574;BME280;62840;52.366;5.980;2023-05-21T09:42:38;101715.16;;;18.59;57.17
69574;BME280;62840;52.366;5.980;2023-05-21T09:45:06;101701.84;;;18.66;57.35
69574;BME280;62840;52.366;5.980;2023-05-21T09:47:33;101716.47;;;18.73;57.43
69574;BME280;62840;52.366;5.980;2023-05-21T09:49:59;101710.38;;;18.79;56.80
69574;BME280;62840;52.366;5.980;2023-05-21T09:52:28;101709.75;;;18.85;57.06
69574;BME280;62840;52.366;5.980;2023-05-21T09:54:53;101702.00;;;18.90;56.56
69574;BME280;62840;52.366;5.980;2023-05-21T09:57:23;101696.31;;;18.93;56.56
69574;BME280;62840;52.366;5.980;2023-05-21T09:59:50;101691.72;;;18.94;56.88
69574;BME280;62840;52.366;5.980;2023-05-21T10:02:18;101697.00;;;18.95;56.85
69574;BME280;62840;52.366;5.980;2023-05-21T10:04:47;101695.13;;;18.96;56.72
69574;BME280;62840;52.366;5.980;2023-05-21T10:07:15;101691.94;;;19.01;56.75
69574;BME280;62840;52.366;5.980;2023-05-21T10:09:46;101687.91;;;19.05;56.74
69574;BME280;62840;52.366;5.980;2023-05-21T10:12:13;101682.84;;;19.10;56.13
69574;BME280;62840;52.366;5.980;2023-05-21T10:14:42;101674.44;;;19.13;56.32
69574;BME280;62840;52.366;5.980;2023-05-21T10:17:14;101674.94;;;19.16;56.37
69574;BME280;62840;52.366;5.980;2023-05-21T10:19:41;101675.13;;;19.23;56.42
69574;BME280;62840;52.366;5.980;2023-05-21T10:22:09;101670.06;;;19.28;56.04
69574;BME280;62840;52.366;5.980;2023-05-21T10:24:36;101668.75;;;19.32;55.89
69574;BME280;62840;52.366;5.980;2023-05-21T10:27:06;101672.81;;;19.36;56.23
69574;BME280;62840;52.366;5.980;2023-05-21T10:29:33;101666.06;;;19.41;56.02
69574;BME280;62840;52.366;5.980;2023-05-21T10:32:01;101665.72;;;19.44;55.81
69574;BME280;62840;52.366;5.980;2023-05-21T10:34:30;101652.88;;;19.46;55.62
69574;BME280;62840;52.366;5.980;2023-05-21T10:36:56;101665.91;;;19.50;55.63
69574;BME280;62840;52.366;5.980;2023-05-21T10:39:26;101661.03;;;19.54;55.58
69574;BME280;62840;52.366;5.980;2023-05-21T10:42:07;101661.72;;;19.56;55.73
69574;BME280;62840;52.366;5.980;2023-05-21T10:44:52;101661.41;;;19.59;55.34
69574;BME280;62840;52.366;5.980;2023-05-21T10:47:46;101653.81;;;19.63;55.15
69574;BME280;62840;52.366;5.980;2023-05-21T10:50:43;101648.88;;;19.66;55.57
69574;BME280;62840;52.366;5.980;2023-05-21T10:53:43;101659.06;;;19.72;55.40
69574;BME280;62840;52.366;5.980;2023-05-21T10:56:24;101657.03;;;19.74;55.74
69574;BME280;62840;52.366;5.980;2023-05-21T10:59:18;101659.22;;;19.79;55.13
69574;BME280;62840;52.366;5.980;2023-05-21T11:01:57;101654.66;;;19.79;55.46
69574;BME280;62840;52.366;5.980;2023-05-21T11:04:25;101645.53;;;19.81;55.33
69574;BME280;62840;52.366;5.980;2023-05-21T11:06:52;101642.66;;;19.82;54.84
69574;BME280;62840;52.366;5.980;2023-05-21T11:09:17;101645.88;;;19.86;54.94
69574;BME280;62840;52.366;5.980;2023-05-21T11:11:44;101640.78;;;19.91;55.05
69574;BME280;62840;52.366;5.980;2023-05-21T11:14:30;101642.00;;;19.96;55.05
69574;BME280;62840;52.366;5.980;2023-05-21T11:16:58;101638.09;;;19.99;54.68
69574;BME280;62840;52.366;5.980;2023-05-21T11:19:34;101637.41;;;20.05;55.20
69574;BME280;62840;52.366;5.980;2023-05-21T11:22:18;101638.44;;;20.12;54.73
69574;BME280;62840;52.366;5.980;2023-05-21T11:24:46;101639.75;;;20.16;54.67
69574;BME280;62840;52.366;5.980;2023-05-21T11:27:12;101630.28;;;20.20;54.66
69574;BME280;62840;52.366;5.980;2023-05-21T11:29:46;101640.44;;;20.27;54.85
69574;BME280;62840;52.366;5.980;2023-05-21T11:32:13;101645.50;;;20.30;54.67
69574;BME280;62840;52.366;5.980;2023-05-21T11:34:40;101635.19;;;20.33;54.15
69574;BME280;62840;52.366;5.980;2023-05-21T11:37:29;101632.63;;;20.40;54.46
69574;BME280;62840;52.366;5.980;2023-05-21T11:40:24;101631.31;;;20.44;54.60
69574;BME280;62840;52.366;5.980;2023-05-21T11:42:51;101627.56;;;20.45;54.59
69574;BME280;62840;52.366;5.980;2023-05-21T11:45:22;101625.53;;;20.47;54.20
69574;BME280;62840;52.366;5.980;2023-05-21T11:47:52;101624.84;;;20.53;54.44
69574;BME280;62840;52.366;5.980;2023-05-21T11:50:20;101621.78;;;20.56;54.42
69574;BME280;62840;52.366;5.980;2023-05-21T11:52:46;101625.00;;;20.60;54.16
69574;BME280;62840;52.366;5.980;2023-05-21T11:55:13;101623.63;;;20.64;54.10
69574;BME280;62840;52.366;5.980;2023-05-21T11:57:40;101624.78;;;20.70;54.05
69574;BME280;62840;52.366;5.980;2023-05-21T12:00:13;101617.63;;;20.77;54.35
69574;BME280;62840;52.366;5.980;2023-05-21T12:02:46;101617.63;;;20.85;53.96
69574;BME280;62840;52.366;5.980;2023-05-21T12:05:15;101615.22;;;20.90;53.72
69574;BME280;62840;52.366;5.980;2023-05-21T12:07:41;101612.19;;;20.93;53.38
69574;BME280;62840;52.366;5.980;2023-05-21T12:10:11;101611.81;;;20.96;53.67
69574;BME280;62840;52.366;5.980;2023-05-21T12:12:37;101607.06;;;20.98;53.58
69574;BME280;62840;52.366;5.980;2023-05-21T12:15:04;101602.09;;;21.02;53.57
69574;BME280;62840;52.366;5.980;2023-05-21T12:17:30;101602.59;;;21.06;53.31
69574;BME280;62840;52.366;5.980;2023-05-21T12:19:59;101595.13;;;21.08;53.38
69574;BME280;62840;52.366;5.980;2023-05-21T12:22:25;101600.03;;;21.12;53.64
69574;BME280;62840;52.366;5.980;2023-05-21T14:55:35;101535.44;;;20.45;55.89
69574;BME280;62840;52.366;5.980;2023-05-21T14:58:01;101538.03;;;20.70;55.82
69574;BME280;62840;52.366;5.980;2023-05-21T15:00:27;101537.25;;;20.92;55.93
69574;BME280;62840;52.366;5.980;2023-05-21T15:02:52;101536.31;;;21.08;55.64
69574;BME280;62840;52.366;5.980;2023-05-21T15:05:18;101532.00;;;21.22;55.88
69574;BME280;62840;52.366;5.980;2023-05-21T15:07:44;101530.56;;;21.34;55.73
69574;BME280;62840;52.366;5.980;2023-05-21T15:10:10;101524.72;;;21.45;55.86
69574;BME280;62840;52.366;5.980;2023-05-21T15:12:39;101526.63;;;21.60;55.67
69574;BME280;62840;52.366;5.980;2023-05-21T15:15:06;101515.97;;;21.73;55.63
69574;BME280;62840;52.366;5.980;2023-05-21T15:17:33;101516.19;;;21.86;54.93
69574;BME280;62840;52.366;5.980;2023-05-21T15:20:00;101519.16;;;22.00;54.93
69574;BME280;62840;52.366;5.980;2023-05-21T15:22:25;101515.13;;;22.11;54.52